Airfield :
LOGIN :

Register | Disclaimer

   EN    FR    IT 

 










Legend :    VFR   Marginal VFR   IFR   Intensive IFR   Very Intensive IFR
Visi :
Ceiling :
>= 8 km
>= 3000ft
5 to 8 km
1000 to 3000 ft
1500m to 5 km
500 to 1000 ft
800 to 1500m
200 to 500 ft
< 800m
< 200 ft
Symbols :   Thunderstorms  Fog  Heavy snow  Heavy precipitations  Wind > 20 kt
SIGMETs :     Misc.  Thunderstorms  Icing  Turbulence  Mountain Waves  Volcanic Ashes







- Airport Elevation : 1071 ft
- IATA code : LWO


UKLL - L'viv

CURRENT METAR :
  • 181130Z 28001MPS 5000 BR OVC018 M03/M04 Q1028 R31/610550 NOSIG

EXPIRED METARs :
  • 181100Z 28001MPS 5000 BR OVC018 M03/M04 Q1028 R31/610550 NOSIG
  • 181030Z 26001MPS 4600 BR OVC018 M03/M04 Q1028 R31/610550 NOSIG
  • 181000Z 25001MPS 4400 BR OVC018 M03/M04 Q1028 R31/610550 NOSIG
  • 180930Z 00000MPS 4300 BR OVC018 M03/M04 Q1028 R31/610550 NOSIG
  • 180900Z 00000MPS 4100 BR OVC018 M03/M05 Q1028 R31/610550 NOSIG

TAF TAF UKLL
Valid from the 18 at 12:00 until the 19 at 12:00 UTC


181105Z 1812/1912 VRB01MPS 3000 BR SCT004 OVC007 TXM02/1812Z TNM06/1903Z
TEMPO 1812/1912 2100 -SHSN BR SCT003 BKN007 BKN015CB
BECMG 1905/1907 14005MPS
No reported NOTAMs for that airfield.



MET'MAP, your aeronautical weather chart ! - Copyright ORBIFLY December 2007 - Disclaimer

ORBIFLY MET'MAP TEAM :

Programming & Development : Alexandra Zaïnal
Concept & Development : Baudouin d'Aumeries
Co-Development & Prog : Marc-Olivier Méhu
Technical & hardware support : Manuel Goepfert

Contact : metmap@orbifly.com




SOURCES & CREDITS :

   NOAA